Humidity-temperature Sensor

Selected Measurement Type: Relative Humidity

 
Relative Humidity [%]     6 entries per hour
Showing data from 6/30/2020 (00:00:00 Z) to 6/29/2020 (00:01:00 Z)
Previous Next [ Day | 3-Days | 7-Days ]
First Last
Prev [ Day | 3-Days | 7-Days ] Next
First Last

Start Time:     :
End Time:     :     
Time (in GMT) :00 :50 :40 :30 :20 :10
Previous Next [ Day | 3-Days | 7-Days ]
First Last
Prev [ Day | 3-Days | 7-Days ] Next
First Last


123 => good data
MM => data is determined as missing
-- => data not received/configured
Back to Top Back to Top
6/30/2020 00:00 to 23:10 86.59 88.60 88.64 86.53 88.56 88.19
6/29/2020 23:00 to 22:10 85.15 87.43 88.79 89.36 85.11 85.00
6/29/2020 22:00 to 21:10 86.01 84.51 85.50 85.76 87.18 86.81
6/29/2020 21:00 to 20:10 88.05 89.18 90.68 91.09 91.00 90.49
6/29/2020 20:00 to 19:10 89.26 90.57 91.44 93.04 93.86 95.53
6/29/2020 19:00 to 18:10 96.04 96.61 96.94 97.48 97.79 97.89
6/29/2020 18:00 to 17:10 98.01 98.22 98.24 98.28 96.41 94.09
6/29/2020 17:00 to 16:10 87.66 88.21 91.50 93.35 93.51 93.45
6/29/2020 16:00 to 15:10 91.81 89.63 93.66 91.89 91.17 92.05
6/29/2020 15:00 to 14:10 90.37 90.47 89.46 88.85 91.72 93.59
6/29/2020 14:00 to 13:10 95.48 96.14 95.03 94.54 92.87 91.72
6/29/2020 13:00 to 12:10 90.88 91.97 91.91 92.73 94.09 95.07
6/29/2020 12:00 to 11:10 95.53 95.26 95.94 96.64 97.15 96.90
6/29/2020 11:00 to 10:10 97.68 98.11 97.89 96.20 96.57 96.55
6/29/2020 10:00 to 9:10 96.72 96.43 97.38 96.76 95.98 93.68
6/29/2020 09:00 to 8:10 92.24 93.31 93.90 94.68 96.45 96.33
6/29/2020 08:00 to 7:10 95.34 93.78 94.05 94.05 94.70 96.51
6/29/2020 07:00 to 6:10 97.89 97.77 97.40 97.11 97.40 97.25
6/29/2020 06:00 to 5:10 95.94 96.06 96.10 96.12 91.52 90.55
6/29/2020 05:00 to 4:10 89.32 87.92 90.45 89.57 88.79 88.00
6/29/2020 04:00 to 3:10 88.83 92.59 92.63 90.29 90.45 90.53
6/29/2020 03:00 to 2:10 89.28 88.17 87.76 87.08 88.25 89.09
6/29/2020 02:00 to 1:10 89.30 89.96 90.18 90.43 90.84 91.31
6/29/2020 01:00 to 0:10 91.03 91.11 91.25 91.17 91.99 91.74